createdAt,value
2022-11-15T05:00:52.410Z,12.10
2022-11-15T05:03:26.333Z,11.70
2022-11-15T05:05:58.310Z,12.10
2022-11-15T05:08:29.957Z,12.10
2022-11-15T05:11:01.624Z,12.70
2022-11-15T05:13:33.566Z,12.10
2022-11-15T05:16:07.212Z,12.00
2022-11-15T05:18:40.959Z,11.80
2022-11-15T05:21:13.392Z,12.00
2022-11-15T05:23:45.060Z,12.00
2022-11-15T05:26:17.655Z,12.00
2022-11-15T05:28:53.330Z,12.00
2022-11-15T05:31:26.920Z,11.90
2022-11-15T05:33:58.555Z,12.00
2022-11-15T05:36:32.317Z,12.10
2022-11-15T05:39:04.223Z,11.80
2022-11-15T05:41:37.927Z,11.80
2022-11-15T05:44:11.283Z,11.90
2022-11-15T05:46:44.331Z,11.90
2022-11-15T05:49:17.484Z,11.80
2022-11-15T05:51:49.179Z,11.80
2022-11-15T05:54:21.034Z,11.80
2022-11-15T05:56:52.876Z,11.70
2022-11-15T05:59:24.541Z,11.60
2022-11-15T06:01:57.637Z,11.60
2022-11-15T06:04:29.319Z,11.50
2022-11-15T06:07:01.056Z,11.50
2022-11-15T06:09:32.712Z,11.40
2022-11-15T06:12:04.894Z,11.30
2022-11-15T06:14:36.556Z,11.30
2022-11-15T06:17:11.494Z,11.20
2022-11-15T06:19:43.284Z,11.10
2022-11-15T06:22:14.955Z,11.10
2022-11-15T06:24:46.606Z,11.00
2022-11-15T06:27:18.286Z,11.00
2022-11-15T06:29:49.933Z,11.00
2022-11-15T06:32:22.981Z,11.00
2022-11-15T06:34:54.643Z,11.00
2022-11-15T06:37:26.282Z,11.10
2022-11-15T06:39:57.975Z,11.10
2022-11-15T06:42:29.608Z,11.10
2022-11-15T06:45:01.277Z,11.10
2022-11-15T06:47:34.297Z,11.10
2022-11-15T06:50:06.841Z,11.10
2022-11-15T06:52:38.468Z,11.10
2022-11-15T06:55:10.115Z,11.10
2022-11-15T06:57:47.819Z,11.10
2022-11-15T07:00:20.478Z,11.10
2022-11-15T07:02:53.463Z,11.00
2022-11-15T07:05:25.157Z,11.00
2022-11-15T07:07:57.214Z,11.00
2022-11-15T07:10:29.039Z,11.00
2022-11-15T07:13:00.736Z,11.00
2022-11-15T07:15:32.409Z,10.90
2022-11-15T07:18:05.633Z,10.90
2022-11-15T07:20:37.289Z,11.00
2022-11-15T07:23:08.916Z,11.00
2022-11-15T07:25:40.592Z,11.00
2022-11-15T07:28:12.322Z,11.00
2022-11-15T07:30:45.479Z,11.00
2022-11-15T07:33:18.754Z,11.00
2022-11-15T07:35:50.441Z,11.30
2022-11-15T07:38:22.201Z,11.00
2022-11-15T07:40:57.060Z,11.00
2022-11-15T07:43:29.103Z,11.10
2022-11-15T07:46:05.170Z,11.10
2022-11-15T07:48:45.327Z,11.20
2022-11-15T07:51:17.470Z,11.20
2022-11-15T07:53:49.102Z,11.20
2022-11-15T07:56:20.754Z,11.20
2022-11-15T07:58:52.534Z,11.20
2022-11-15T08:01:24.319Z,11.20
2022-11-15T08:03:57.400Z,11.30
2022-11-15T08:06:29.047Z,11.30
2022-11-15T08:09:00.878Z,11.40
2022-11-15T08:11:32.580Z,11.40
2022-11-15T08:14:04.229Z,11.50
2022-11-15T08:16:35.901Z,11.60
2022-11-15T08:19:08.911Z,11.70
2022-11-15T08:21:40.597Z,11.70
2022-11-15T08:24:12.232Z,11.80
2022-11-15T08:26:43.901Z,11.80
2022-11-15T08:29:15.546Z,11.80
2022-11-15T08:31:47.218Z,11.90
2022-11-15T08:34:20.201Z,11.90
2022-11-15T08:36:51.902Z,12.00
2022-11-15T08:39:23.534Z,12.00
2022-11-15T08:41:55.233Z,12.00
2022-11-15T08:44:26.896Z,12.10
2022-11-15T08:46:58.559Z,12.20
2022-11-15T08:49:31.571Z,12.20
2022-11-15T08:52:03.378Z,12.20
2022-11-15T08:54:35.039Z,12.30
2022-11-15T08:57:07.116Z,12.40
2022-11-15T08:59:38.772Z,12.40
2022-11-15T09:02:12.413Z,12.70
2022-11-15T09:04:45.436Z,12.40
2022-11-15T09:07:17.188Z,12.60
2022-11-15T09:09:48.911Z,12.60
2022-11-15T09:12:20.593Z,12.70
2022-11-15T09:14:52.240Z,12.70
2022-11-15T09:17:25.219Z,12.70
2022-11-15T09:19:58.370Z,12.80
2022-11-15T09:22:30.074Z,12.70
2022-11-15T09:27:40.204Z,12.70
2022-11-15T09:30:12.630Z,12.90
2022-11-15T09:32:44.498Z,12.90
2022-11-15T09:35:17.633Z,12.90
2022-11-15T09:37:54.995Z,13.00
2022-11-15T09:40:27.946Z,13.00
2022-11-15T09:43:09.604Z,13.00
2022-11-15T09:45:51.580Z,13.10
2022-11-15T09:48:40.160Z,13.00
2022-11-15T09:51:18.513Z,13.10
2022-11-15T09:56:45.328Z,13.10
2022-11-15T11:22:05.029Z,13.70
2022-11-15T11:24:39.930Z,13.60
2022-11-15T11:27:19.494Z,13.60
2022-11-15T11:30:03.546Z,13.60
2022-11-15T11:32:55.089Z,13.60
2022-11-15T11:35:30.546Z,13.60
2022-11-15T11:38:16.519Z,13.60
2022-11-15T11:40:57.931Z,13.60
2022-11-15T11:43:34.376Z,13.60
2022-11-15T11:46:31.677Z,13.70
2022-11-15T11:49:05.147Z,13.70
2022-11-15T11:51:39.583Z,13.80
2022-11-15T11:54:14.581Z,13.80
2022-11-15T11:56:46.241Z,13.80
2022-11-15T11:59:20.892Z,13.90
2022-11-15T12:01:53.990Z,13.90
2022-11-15T12:04:36.533Z,14.00
2022-11-15T12:07:09.946Z,14.00
2022-11-15T12:09:44.432Z,14.10
2022-11-15T12:12:18.131Z,14.10
2022-11-15T12:14:51.233Z,14.20
2022-11-15T12:17:25.376Z,14.30
2022-11-15T12:19:57.514Z,14.40
2022-11-15T12:22:37.162Z,15.00
2022-11-15T12:25:15.217Z,14.40
2022-11-15T12:27:49.223Z,14.50
2022-11-15T12:30:21.854Z,14.50
2022-11-15T12:32:56.050Z,14.60
2022-11-15T12:35:31.361Z,14.60
2022-11-15T12:38:03.022Z,14.80
2022-11-15T12:40:36.264Z,14.50
2022-11-15T12:43:43.754Z,14.90
2022-11-15T12:46:21.697Z,15.00
2022-11-15T12:48:56.363Z,14.40
2022-11-15T12:52:04.539Z,15.10
2022-11-15T12:55:04.075Z,15.10
2022-11-15T12:57:42.891Z,15.20
2022-11-15T13:00:44.515Z,15.20
2022-11-15T13:03:24.186Z,15.20
2022-11-15T13:06:30.797Z,15.20
2022-11-15T13:09:02.476Z,15.20
2022-11-15T13:11:51.367Z,15.20
2022-11-15T13:14:49.000Z,15.20
2022-11-15T13:17:28.798Z,15.10
2022-11-15T13:20:08.457Z,15.20
2022-11-15T13:22:42.148Z,15.20
2022-11-15T13:25:17.546Z,15.10
2022-11-15T13:27:49.540Z,15.20
2022-11-15T13:30:22.788Z,15.20
2022-11-15T13:32:54.467Z,15.20
2022-11-15T13:35:26.758Z,15.10
2022-11-15T13:37:59.793Z,15.10
2022-11-15T13:40:36.000Z,15.00
2022-11-15T13:43:18.786Z,14.80
2022-11-15T13:46:07.824Z,14.90
2022-11-15T13:48:39.772Z,14.90
2022-11-15T13:51:16.803Z,14.80
2022-11-15T13:53:52.970Z,14.70
2022-11-15T13:56:24.635Z,14.80
2022-11-15T14:04:01.620Z,14.70
2022-11-15T14:09:34.249Z,14.60
2022-11-15T14:12:36.280Z,14.60
2022-11-15T14:17:51.798Z,14.70
2022-11-15T14:23:04.020Z,14.70
2022-11-15T14:28:11.704Z,14.70
2022-11-15T14:30:44.372Z,14.60
2022-11-15T14:33:21.319Z,14.50
2022-11-15T14:35:53.077Z,14.50
2022-11-15T14:38:24.813Z,14.50
2022-11-15T14:40:57.823Z,14.50
2022-11-15T14:46:01.489Z,14.50
2022-11-15T14:48:33.383Z,14.50
2022-11-15T14:51:11.768Z,14.50
2022-11-15T14:53:43.591Z,14.50
2022-11-15T14:56:16.599Z,14.50
2022-11-15T15:01:22.130Z,14.50
2022-11-15T15:03:53.880Z,14.60
2022-11-15T15:08:57.677Z,14.40
2022-11-15T15:11:31.421Z,14.40
2022-11-15T15:14:03.096Z,14.40
2022-11-15T15:16:34.771Z,14.30
2022-11-15T15:19:06.500Z,14.30
2022-11-15T15:21:38.175Z,14.30
2022-11-15T15:24:10.073Z,14.20
2022-11-15T15:26:43.056Z,14.20
2022-11-15T15:29:14.743Z,14.20
2022-11-15T15:31:46.387Z,14.20
2022-11-15T15:34:18.039Z,14.20
2022-11-15T15:41:57.460Z,14.10
2022-11-15T15:44:29.286Z,14.10
2022-11-15T15:47:00.946Z,14.10
2022-11-15T15:49:32.648Z,14.00
2022-11-15T15:52:04.297Z,14.00
2022-11-15T15:54:35.962Z,14.00
2022-11-15T15:57:09.281Z,14.00
2022-11-15T15:59:40.972Z,13.90
2022-11-15T16:02:12.660Z,13.90
2022-11-15T16:04:44.814Z,13.90
2022-11-15T16:07:18.053Z,13.80
2022-11-15T16:09:49.772Z,13.80
2022-11-15T16:12:22.754Z,13.80
2022-11-15T16:14:54.401Z,13.80
2022-11-15T16:17:32.831Z,13.80
2022-11-15T16:20:06.253Z,13.90
2022-11-15T16:22:37.898Z,13.90
2022-11-15T16:25:09.784Z,13.90
2022-11-15T16:27:42.828Z,14.00
2022-11-15T16:30:16.045Z,13.90
2022-11-15T16:32:48.073Z,14.00
2022-11-15T16:35:19.778Z,14.00
2022-11-15T16:40:27.504Z,14.00
2022-11-15T16:43:00.581Z,14.00
2022-11-15T16:45:33.782Z,14.00
2022-11-15T16:48:05.540Z,14.00
2022-11-15T16:55:42.334Z,14.00
2022-11-15T16:58:15.352Z,14.00
2022-11-15T17:00:50.602Z,13.90
2022-11-15T17:03:22.429Z,13.90
2022-11-15T17:05:54.059Z,13.90
2022-11-15T17:08:25.704Z,13.90
2022-11-15T17:10:57.352Z,13.90
2022-11-15T17:13:30.358Z,13.90
2022-11-15T17:16:06.477Z,13.90
2022-11-15T17:18:38.169Z,13.90
2022-11-15T17:21:12.215Z,13.90
2022-11-15T17:23:43.858Z,13.90
2022-11-15T17:26:34.170Z,14.00
2022-11-15T17:29:09.040Z,14.00
2022-11-15T17:31:40.678Z,13.90
2022-11-15T17:34:12.338Z,13.90
2022-11-15T17:36:43.982Z,13.90
2022-11-15T17:39:15.628Z,13.90
2022-11-15T17:41:47.329Z,13.90
2022-11-15T17:44:20.376Z,13.80
2022-11-15T17:46:52.048Z,13.70
2022-11-15T17:49:23.884Z,13.60
2022-11-15T17:51:55.535Z,13.60
2022-11-15T17:54:27.175Z,13.50
2022-11-15T17:56:58.898Z,13.50
2022-11-15T17:59:31.887Z,13.40
2022-11-15T18:02:04.262Z,13.40
2022-11-15T18:04:35.931Z,13.30
2022-11-15T18:07:07.633Z,13.20
2022-11-15T18:09:39.192Z,13.20
2022-11-15T18:12:10.697Z,13.10
2022-11-15T18:14:43.560Z,13.00
2022-11-15T18:17:15.096Z,12.90
2022-11-15T18:19:46.614Z,12.80
2022-11-15T18:22:18.116Z,12.70
2022-11-15T18:24:49.654Z,12.70
2022-11-15T18:27:21.164Z,12.60
2022-11-15T18:29:54.017Z,12.60
2022-11-15T18:32:25.515Z,12.50
2022-11-15T18:34:57.040Z,12.40
2022-11-15T18:37:28.571Z,12.40
2022-11-15T18:40:00.098Z,12.30
2022-11-15T18:42:31.603Z,12.20
2022-11-15T18:45:04.951Z,12.20
2022-11-15T18:47:36.472Z,12.10
2022-11-15T18:50:08.559Z,12.10
2022-11-15T18:52:40.229Z,12.00
2022-11-15T18:55:11.865Z,12.00
2022-11-15T18:57:43.504Z,11.90
2022-11-15T19:00:18.135Z,11.90
2022-11-15T19:02:49.768Z,11.80
2022-11-15T19:05:21.460Z,11.80
2022-11-15T19:07:53.107Z,11.80
2022-11-15T19:10:24.751Z,11.80
2022-11-15T19:12:56.366Z,11.80
2022-11-15T19:15:29.377Z,11.80
2022-11-15T19:18:01.022Z,11.70
2022-11-15T19:20:35.011Z,11.70
2022-11-15T19:23:06.669Z,11.70
2022-11-15T19:25:38.541Z,11.70
2022-11-15T19:28:10.171Z,11.70
2022-11-15T19:30:43.197Z,11.60
2022-11-15T19:33:14.817Z,11.60
2022-11-15T19:35:46.480Z,11.70
2022-11-15T19:38:18.123Z,11.70
2022-11-15T19:40:50.576Z,11.70
2022-11-15T19:43:22.223Z,11.60
2022-11-15T19:46:00.927Z,11.60
2022-11-15T19:48:34.204Z,11.60
2022-11-15T19:51:06.878Z,11.60
2022-11-15T19:53:39.042Z,11.60
2022-11-15T19:56:12.141Z,11.60
2022-11-15T19:58:43.936Z,11.60
2022-11-15T20:01:18.412Z,11.60
2022-11-15T20:03:51.276Z,11.60
2022-11-15T20:06:23.784Z,11.60
2022-11-15T20:08:55.451Z,11.60
2022-11-15T20:11:27.115Z,11.60
2022-11-15T20:13:59.100Z,11.50
2022-11-15T20:16:32.079Z,11.50
2022-11-15T20:19:03.775Z,11.50
2022-11-15T20:21:35.464Z,11.50
2022-11-15T20:24:07.869Z,11.50
2022-11-15T20:26:39.530Z,11.50
2022-11-15T20:29:11.197Z,11.50
2022-11-15T20:31:44.195Z,11.50
2022-11-15T20:34:15.846Z,11.50
2022-11-15T20:36:47.462Z,11.50
2022-11-15T20:39:19.139Z,11.40
2022-11-15T20:41:50.983Z,11.40
2022-11-15T20:44:22.630Z,11.40
2022-11-15T20:46:55.620Z,11.40
2022-11-15T20:49:27.264Z,11.40
2022-11-15T20:51:58.896Z,11.40
2022-11-15T20:54:30.658Z,11.40
2022-11-15T20:57:02.310Z,11.40
2022-11-15T20:59:33.977Z,11.40
2022-11-15T21:02:07.056Z,11.40
2022-11-15T21:04:38.794Z,11.40
2022-11-15T21:07:10.473Z,11.90
2022-11-15T21:09:42.176Z,11.40
2022-11-15T21:12:13.975Z,11.40
2022-11-15T21:14:45.634Z,11.40
2022-11-15T21:17:18.614Z,11.40
2022-11-15T21:19:50.431Z,11.40
2022-11-15T21:22:22.068Z,11.40
2022-11-15T21:24:53.686Z,11.40
2022-11-15T21:27:25.360Z,11.40
2022-11-15T21:29:57.020Z,11.40
2022-11-15T21:32:30.022Z,11.40
2022-11-15T21:35:01.688Z,11.40
2022-11-15T21:37:33.315Z,11.30
2022-11-15T21:40:06.042Z,11.30
2022-11-15T21:42:37.667Z,11.30
2022-11-15T21:45:10.487Z,11.30
2022-11-15T21:47:46.430Z,11.30
2022-11-15T21:50:18.614Z,11.30
2022-11-15T21:52:50.428Z,11.30
2022-11-15T21:55:22.062Z,11.30
2022-11-15T21:57:53.690Z,11.30
2022-11-15T22:00:25.338Z,11.30
2022-11-15T22:02:58.314Z,11.40
2022-11-15T22:05:30.063Z,11.30
2022-11-15T22:08:01.739Z,11.30
2022-11-15T22:13:07.456Z,11.30
2022-11-15T22:15:39.106Z,11.30
2022-11-15T22:18:12.083Z,11.30
2022-11-15T22:20:51.722Z,11.30
2022-11-15T22:23:23.411Z,11.30
2022-11-15T22:28:27.130Z,11.30
2022-11-15T22:30:58.939Z,11.30
2022-11-15T22:33:33.027Z,11.30
2022-11-15T22:36:05.331Z,11.30
2022-11-15T22:38:37.261Z,11.30
2022-11-15T22:41:09.073Z,11.30
2022-11-15T22:43:40.759Z,11.30
2022-11-15T22:46:12.405Z,11.20
2022-11-15T22:48:45.391Z,11.30
2022-11-15T22:51:17.028Z,11.20
2022-11-15T22:53:48.803Z,11.20
2022-11-15T22:56:20.520Z,11.20
2022-11-15T22:58:52.201Z,11.20
